createdAt,value
2022-11-11T00:02:02.008Z,1.80
2022-11-11T00:08:19.052Z,2.30
2022-11-11T00:14:37.906Z,2.37
2022-11-11T00:21:08.800Z,1.85
2022-11-11T00:27:25.317Z,1.87
2022-11-11T00:33:38.978Z,1.52
2022-11-11T00:39:56.197Z,2.33
2022-11-11T00:46:29.045Z,2.33
2022-11-11T00:52:47.114Z,2.45
2022-11-11T00:58:59.482Z,2.37
2022-11-11T01:05:16.748Z,2.02
2022-11-11T01:11:26.981Z,2.27
2022-11-11T01:17:41.770Z,2.25
2022-11-11T01:23:52.695Z,1.82
2022-11-11T01:30:06.219Z,2.00
2022-11-11T01:36:22.588Z,2.72
2022-11-11T01:42:36.495Z,1.92
2022-11-11T01:49:07.648Z,2.33
2022-11-11T01:55:22.781Z,2.10
2022-11-11T02:01:38.687Z,2.40
2022-11-11T02:07:52.285Z,2.45
2022-11-11T02:14:33.198Z,3.08
2022-11-11T02:20:47.719Z,2.42
2022-11-11T02:27:04.999Z,2.12
2022-11-11T02:33:18.875Z,2.40
2022-11-11T02:39:56.639Z,1.70
2022-11-11T02:45:51.806Z,2.02
2022-11-11T02:52:06.389Z,2.33
2022-11-11T02:58:18.468Z,2.50
2022-11-11T03:04:34.346Z,1.52
2022-11-11T03:10:44.437Z,1.93
2022-11-11T03:17:13.896Z,2.02
2022-11-11T03:23:27.695Z,1.87
2022-11-11T03:29:44.902Z,2.60
2022-11-11T03:36:03.033Z,2.00
2022-11-11T03:42:16.763Z,1.42
2022-11-11T03:48:32.641Z,1.70
2022-11-11T03:54:48.534Z,1.63
2022-11-11T04:01:00.250Z,1.73
2022-11-11T04:07:29.110Z,2.40
2022-11-11T04:13:59.029Z,2.55
2022-11-11T04:20:28.453Z,2.45
2022-11-11T04:26:43.054Z,1.72
2022-11-11T04:32:55.634Z,1.60
2022-11-11T04:39:23.453Z,1.80
2022-11-11T04:45:37.139Z,1.35
2022-11-11T04:52:18.345Z,1.57
2022-11-11T04:58:32.369Z,1.42
2022-11-11T05:04:47.967Z,1.85
2022-11-11T05:11:03.631Z,1.98
2022-11-11T05:17:32.649Z,1.60
2022-11-11T05:24:04.745Z,1.32
2022-11-11T05:30:23.198Z,1.80
2022-11-11T05:36:38.586Z,1.75
2022-11-11T05:42:54.501Z,2.37
2022-11-11T05:49:19.140Z,0.90
2022-11-11T05:55:31.402Z,1.22
2022-11-11T06:01:46.013Z,1.05
2022-11-11T06:08:00.449Z,1.42
2022-11-11T06:14:12.317Z,1.47
2022-11-11T06:20:27.170Z,1.75
2022-11-11T06:26:40.610Z,1.72
2022-11-11T06:32:56.411Z,1.40
2022-11-11T06:39:14.233Z,1.70
2022-11-11T06:45:29.940Z,1.55
2022-11-11T06:51:45.844Z,1.37
2022-11-11T06:57:57.899Z,1.90
2022-11-11T07:04:12.322Z,1.20
2022-11-11T07:10:26.423Z,1.30
2022-11-11T07:16:40.889Z,1.35
2022-11-11T07:22:56.538Z,1.37
2022-11-11T07:29:09.901Z,1.55
2022-11-11T07:35:24.084Z,1.07
2022-11-11T07:41:40.396Z,1.17
2022-11-11T07:47:57.485Z,1.70
2022-11-11T07:54:11.904Z,1.42
2022-11-11T08:00:29.287Z,1.55
2022-11-11T08:06:43.656Z,0.90
2022-11-11T08:13:16.510Z,1.00
2022-11-11T08:19:32.422Z,1.07
2022-11-11T08:25:48.856Z,1.60
2022-11-11T08:32:02.682Z,1.15
2022-11-11T08:38:16.649Z,1.42
2022-11-11T08:44:33.469Z,1.15
2022-11-11T08:56:59.654Z,0.90
2022-11-11T09:03:17.601Z,1.35
2022-11-11T09:09:28.454Z,1.52
2022-11-11T09:15:45.641Z,1.00
2022-11-11T09:21:57.452Z,1.10
2022-11-11T09:28:12.706Z,1.22
2022-11-11T09:34:25.960Z,1.07
2022-11-11T09:40:45.299Z,0.98
2022-11-11T09:47:06.335Z,0.75
2022-11-11T09:53:25.762Z,1.20
2022-11-11T09:59:45.182Z,1.00
2022-11-11T10:06:02.000Z,1.42
2022-11-11T10:18:40.305Z,1.40
2022-11-11T10:24:57.954Z,1.10
2022-11-11T10:31:17.811Z,1.02
2022-11-11T10:37:38.526Z,0.98
2022-11-11T10:43:54.244Z,1.07
2022-11-11T10:50:05.836Z,0.95
2022-11-11T10:56:22.492Z,1.62
2022-11-11T11:02:37.625Z,0.93
2022-11-11T11:08:51.518Z,1.12
2022-11-11T11:15:07.897Z,1.02
2022-11-11T11:21:23.867Z,1.20
2022-11-11T11:27:37.629Z,1.00
2022-11-11T11:34:05.185Z,1.37
2022-11-11T11:40:18.073Z,1.02
2022-11-11T11:46:38.755Z,0.75
2022-11-11T11:53:02.950Z,1.00
2022-11-11T11:59:23.911Z,1.20
2022-11-11T12:05:39.363Z,1.20
2022-11-11T12:11:53.783Z,1.27
2022-11-11T12:18:29.048Z,1.10
2022-11-11T12:24:50.460Z,0.70
2022-11-11T12:31:09.374Z,0.80
2022-11-11T12:37:22.010Z,1.00
2022-11-11T12:43:36.486Z,0.82
2022-11-11T12:50:00.920Z,1.20
2022-11-11T12:56:19.189Z,0.70
2022-11-11T13:02:48.934Z,0.85
2022-11-11T13:09:33.430Z,0.93
2022-11-11T13:15:48.271Z,0.90
2022-11-11T13:22:05.330Z,1.05
2022-11-11T13:28:21.848Z,0.93
2022-11-11T13:34:38.009Z,1.30
2022-11-11T13:40:55.015Z,0.72
2022-11-11T13:47:09.859Z,1.20
2022-11-11T13:53:34.989Z,0.75
2022-11-11T13:59:49.575Z,1.52
2022-11-11T14:06:29.961Z,0.95
2022-11-11T14:12:46.511Z,0.80
2022-11-11T14:18:55.435Z,1.12
2022-11-11T14:25:32.076Z,0.90
2022-11-11T14:32:09.703Z,1.55
2022-11-11T14:38:33.343Z,1.40
2022-11-11T14:44:50.873Z,1.22
2022-11-11T14:51:10.059Z,1.30
2022-11-11T14:57:32.509Z,1.40
2022-11-11T15:03:50.397Z,1.30
2022-11-11T15:10:19.850Z,1.55
2022-11-11T15:16:41.090Z,1.02
2022-11-11T15:23:00.986Z,1.17
2022-11-11T15:29:24.585Z,0.85
2022-11-11T15:35:44.763Z,0.90
2022-11-11T15:41:58.537Z,1.30
2022-11-11T15:48:20.288Z,1.05
2022-11-11T15:54:37.869Z,1.20
2022-11-11T16:00:49.050Z,1.77
2022-11-11T16:07:04.990Z,0.82
2022-11-11T16:13:19.454Z,2.22
2022-11-11T16:19:42.361Z,0.90
2022-11-11T16:25:53.979Z,1.15
2022-11-11T16:32:06.385Z,1.37
2022-11-11T16:38:20.768Z,1.45
2022-11-11T16:44:45.057Z,0.80
2022-11-11T16:51:10.420Z,1.70
2022-11-11T16:57:26.151Z,3.17
2022-11-11T17:03:41.889Z,3.20
2022-11-11T17:09:58.147Z,2.53
2022-11-11T17:16:12.221Z,2.35
2022-11-11T17:22:27.935Z,2.00
2022-11-11T17:28:45.386Z,2.83
2022-11-11T17:35:07.353Z,2.08
2022-11-11T17:41:18.690Z,1.45
2022-11-11T17:47:32.749Z,1.52
2022-11-11T17:53:48.335Z,1.50
2022-11-11T18:00:06.013Z,1.87
2022-11-11T18:06:22.594Z,1.42
2022-11-11T18:24:56.567Z,1.20
2022-11-11T18:31:15.107Z,1.10
2022-11-11T18:37:30.689Z,1.27
2022-11-11T18:43:54.530Z,1.07
2022-11-11T18:50:09.234Z,1.42
2022-11-11T18:56:26.365Z,1.50
2022-11-11T19:02:39.899Z,1.70
2022-11-11T19:08:53.590Z,1.77
2022-11-11T19:15:09.567Z,1.07
2022-11-11T19:21:19.361Z,1.27
2022-11-11T19:27:31.970Z,1.40
2022-11-11T19:33:45.581Z,1.70
2022-11-11T19:39:57.523Z,2.87
2022-11-11T19:46:11.408Z,1.52
2022-11-11T19:52:27.239Z,1.90
2022-11-11T19:58:45.317Z,1.30
2022-11-11T20:05:01.292Z,0.90
2022-11-11T20:11:16.348Z,1.22
2022-11-11T20:17:28.757Z,1.02
2022-11-11T20:23:44.609Z,1.40
2022-11-11T20:30:02.700Z,0.93
2022-11-11T20:36:20.161Z,1.10
2022-11-11T20:42:34.009Z,0.95
2022-11-11T20:48:51.220Z,0.88
2022-11-11T20:55:04.482Z,1.25
2022-11-11T21:01:20.945Z,1.00
2022-11-11T21:07:38.145Z,1.52
2022-11-11T21:13:55.876Z,0.95
2022-11-11T21:20:13.688Z,0.80
2022-11-11T21:26:30.338Z,1.30
2022-11-11T21:38:57.450Z,1.57
2022-11-11T21:45:14.400Z,0.85
2022-11-11T21:51:31.069Z,1.30
2022-11-11T21:57:47.816Z,1.85
2022-11-11T22:10:17.751Z,2.45
2022-11-11T22:16:30.659Z,3.22
2022-11-11T22:22:47.949Z,2.40
2022-11-11T22:29:00.076Z,2.90
2022-11-11T22:35:14.214Z,1.98
2022-11-11T22:41:30.957Z,1.60
2022-11-11T22:47:48.392Z,1.57
2022-11-11T22:54:09.570Z,1.17
2022-11-11T23:00:25.306Z,1.32
2022-11-11T23:06:40.908Z,1.00
2022-11-11T23:12:58.775Z,1.47
2022-11-11T23:19:15.593Z,2.05
2022-11-11T23:25:34.461Z,1.72
2022-11-11T23:31:49.113Z,1.10
2022-11-11T23:38:03.813Z,1.40
2022-11-11T23:44:19.611Z,1.20
2022-11-11T23:50:38.306Z,1.57
2022-11-11T23:56:56.490Z,1.27
